CCA1535 ZLXN-ZGHA
Flight info
| Callsign | CCA1535 |
|---|---|
| Flight time | 2h 11m |
| Altitude | 37100 |
| Route | UPVOP W111 BIGUX B330 VIMAM W235 UBRAB B213 VINEX V38 ENH W139 DYG W138 RUKLI |
| Aircraft | A339/H-SADE1E2E3GHIJ1J3J5M1P2RWXY/LB1 |
Departure
| Time | 2026-05-04 09:51 |
|---|---|
| Airport | Xining Caojiabao International Airport (ZLXN) |
Arrival
| Time | 2026-05-04 12:02 |
|---|---|
| Airport | Changsha Huanghua International Airport (ZGHA) |
| Time | Latitude | Longitude | Altitude | Speed | Heading |
|---|---|---|---|---|---|
| 2026-05-04 09:28 | 36.52307 | 102.05198 | 7224 ft | 0 kts | 266° |
| 2026-05-04 09:39 | 36.52307 | 102.05199 | 7224 ft | 0 kts | 266° |
| 2026-05-04 09:39 | 36.52307 | 102.05211 | 7225 ft | 2 kts | 266° |
| 2026-05-04 09:40 | 36.52308 | 102.05230 | 7224 ft | 2 kts | 266° |
| 2026-05-04 09:40 | 36.52309 | 102.05249 | 7224 ft | 2 kts | 266° |
| 2026-05-04 09:40 | 36.52310 | 102.05267 | 7224 ft | 2 kts | 278° |
| 2026-05-04 09:40 | 36.52305 | 102.05285 | 7224 ft | 2 kts | 308° |
| 2026-05-04 09:41 | 36.52294 | 102.05298 | 7224 ft | 2 kts | 332° |
| 2026-05-04 09:42 | 36.52262 | 102.05300 | 7224 ft | 0 kts | 19° |
| 2026-05-04 09:44 | 36.52265 | 102.05301 | 7224 ft | 0 kts | 19° |
| 2026-05-04 09:46 | 36.52446 | 102.05402 | 7225 ft | 5 kts | 80° |
| 2026-05-04 09:46 | 36.52442 | 102.05450 | 7225 ft | 6 kts | 105° |
| 2026-05-04 09:46 | 36.52428 | 102.05505 | 7225 ft | 6 kts | 109° |
| 2026-05-04 09:47 | 36.52410 | 102.05566 | 7225 ft | 8 kts | 109° |
| 2026-05-04 09:47 | 36.52390 | 102.05642 | 7225 ft | 10 kts | 108° |
| 2026-05-04 09:49 | 36.52495 | 102.05881 | 7225 ft | 4 kts | 294° |
| 2026-05-04 09:49 | 36.52508 | 102.05836 | 7225 ft | 9 kts | 289° |
| 2026-05-04 09:49 | 36.52603 | 102.05496 | 7226 ft | 74 kts | 289° |
| 2026-05-04 09:51 | 36.54696 | 101.97648 | 9594 ft | 164 kts | 287° |
| 2026-05-04 09:51 | 36.55052 | 101.96295 | 9955 ft | 165 kts | 286° |
| 2026-05-04 09:51 | 36.55181 | 101.94904 | 10291 ft | 165 kts | 251° |
| 2026-05-04 09:51 | 36.54539 | 101.93681 | 10515 ft | 176 kts | 216° |
| 2026-05-04 09:52 | 36.53374 | 101.93115 | 10731 ft | 191 kts | 182° |
| 2026-05-04 09:52 | 36.52047 | 101.93551 | 10954 ft | 207 kts | 150° |
| 2026-05-04 09:52 | 36.50797 | 101.94553 | 11194 ft | 221 kts | 148° |
| 2026-05-04 09:52 | 36.49472 | 101.95663 | 11445 ft | 236 kts | 147° |
| 2026-05-04 09:53 | 36.48061 | 101.96832 | 11732 ft | 252 kts | 147° |
| 2026-05-04 09:53 | 36.46538 | 101.98080 | 12056 ft | 268 kts | 148° |
| 2026-05-04 09:53 | 36.44955 | 101.99366 | 12595 ft | 274 kts | 148° |
| 2026-05-04 09:53 | 36.43336 | 102.00674 | 13245 ft | 277 kts | 148° |
| 2026-05-04 09:54 | 36.41720 | 102.01977 | 13885 ft | 280 kts | 148° |
| 2026-05-04 09:54 | 36.40061 | 102.03313 | 14529 ft | 284 kts | 148° |
| 2026-05-04 09:54 | 36.38393 | 102.04652 | 15195 ft | 287 kts | 148° |
| 2026-05-04 09:54 | 36.36733 | 102.05985 | 15865 ft | 290 kts | 148° |
| 2026-05-04 09:55 | 36.35042 | 102.07343 | 16625 ft | 289 kts | 148° |
| 2026-05-04 09:55 | 36.33359 | 102.08694 | 17439 ft | 286 kts | 147° |
| 2026-05-04 09:55 | 36.31905 | 102.10353 | 18088 ft | 289 kts | 121° |
| 2026-05-04 09:55 | 36.31231 | 102.12705 | 18588 ft | 296 kts | 91° |
| 2026-05-04 09:56 | 36.31546 | 102.15243 | 18891 ft | 306 kts | 68° |
| 2026-05-04 09:56 | 36.32323 | 102.17806 | 19195 ft | 323 kts | 66° |
| 2026-05-04 09:56 | 36.33140 | 102.20453 | 19486 ft | 339 kts | 67° |
| 2026-05-04 09:56 | 36.33982 | 102.23255 | 19774 ft | 355 kts | 67° |
| 2026-05-04 09:57 | 36.34848 | 102.26202 | 20048 ft | 371 kts | 68° |
| 2026-05-04 09:57 | 36.35742 | 102.29296 | 20374 ft | 385 kts | 68° |
| 2026-05-04 09:57 | 36.36640 | 102.32439 | 20936 ft | 392 kts | 68° |
| 2026-05-04 09:57 | 36.37544 | 102.35621 | 21618 ft | 395 kts | 68° |
| 2026-05-04 09:58 | 36.38464 | 102.38863 | 22298 ft | 398 kts | 68° |
| 2026-05-04 09:58 | 36.39383 | 102.42110 | 22952 ft | 401 kts | 67° |
| 2026-05-04 09:58 | 36.40302 | 102.45364 | 23584 ft | 404 kts | 67° |
| 2026-05-04 10:00 | 36.45145 | 102.69640 | 27332 ft | 438 kts | 95° |
| 2026-05-04 10:00 | 36.44692 | 102.73356 | 27787 ft | 441 kts | 97° |
| 2026-05-04 10:02 | 36.40899 | 103.00260 | 30679 ft | 463 kts | 98° |
| 2026-05-04 10:04 | 36.36623 | 103.28290 | 32906 ft | 483 kts | 98° |
| 2026-05-04 10:04 | 36.35992 | 103.32382 | 33184 ft | 486 kts | 98° |
| 2026-05-04 10:04 | 36.35354 | 103.36521 | 33480 ft | 489 kts | 98° |
| 2026-05-04 10:04 | 36.34711 | 103.40680 | 33875 ft | 488 kts | 98° |
| 2026-05-04 10:05 | 36.34077 | 103.44772 | 34226 ft | 488 kts | 98° |
| 2026-05-04 10:05 | 36.33426 | 103.48958 | 34522 ft | 488 kts | 97° |
| 2026-05-04 10:05 | 36.32785 | 103.53085 | 34781 ft | 489 kts | 97° |
| 2026-05-04 10:05 | 36.32146 | 103.57197 | 35022 ft | 490 kts | 97° |
| 2026-05-04 10:06 | 36.31500 | 103.61340 | 35264 ft | 492 kts | 97° |
| 2026-05-04 10:06 | 36.30843 | 103.65530 | 35479 ft | 493 kts | 98° |
| 2026-05-04 10:06 | 36.30194 | 103.69675 | 35714 ft | 496 kts | 98° |
| 2026-05-04 10:08 | 36.26156 | 103.95130 | 37096 ft | 508 kts | 98° |
| 2026-05-04 10:08 | 36.25475 | 103.99390 | 37113 ft | 511 kts | 98° |
| 2026-05-04 10:08 | 36.24080 | 104.08077 | 37134 ft | 511 kts | 98° |
| 2026-05-04 10:09 | 36.22700 | 104.16644 | 37157 ft | 511 kts | 98° |
| 2026-05-04 10:09 | 36.20708 | 104.25086 | 37152 ft | 517 kts | 116° |
| 2026-05-04 10:10 | 36.18670 | 104.28734 | 37169 ft | 518 kts | 131° |
| 2026-05-04 10:10 | 36.15960 | 104.31712 | 37182 ft | 517 kts | 147° |
| 2026-05-04 10:10 | 36.12790 | 104.33796 | 37179 ft | 514 kts | 161° |
| 2026-05-04 10:10 | 36.09389 | 104.34892 | 37170 ft | 508 kts | 175° |
| 2026-05-04 10:11 | 36.02386 | 104.35101 | 37188 ft | 504 kts | 184° |
| 2026-05-04 10:11 | 35.95349 | 104.35078 | 37182 ft | 504 kts | 184° |
| 2026-05-04 10:12 | 35.88293 | 104.35163 | 37193 ft | 505 kts | 183° |
| 2026-05-04 10:12 | 35.81287 | 104.35292 | 37196 ft | 505 kts | 183° |
| 2026-05-04 10:13 | 35.74235 | 104.35414 | 37185 ft | 505 kts | 183° |
| 2026-05-04 10:13 | 35.67229 | 104.35523 | 37219 ft | 506 kts | 183° |
| 2026-05-04 10:14 | 35.60182 | 104.35632 | 37223 ft | 506 kts | 183° |
| 2026-05-04 10:16 | 35.35475 | 104.36037 | 37514 ft | 506 kts | 184° |
| 2026-05-04 10:16 | 35.31953 | 104.36096 | 37654 ft | 507 kts | 184° |
| 2026-05-04 10:16 | 35.28402 | 104.36153 | 37790 ft | 507 kts | 184° |
| 2026-05-04 10:16 | 35.24900 | 104.36210 | 37929 ft | 508 kts | 184° |
| 2026-05-04 10:17 | 35.21358 | 104.36266 | 38072 ft | 508 kts | 184° |
| 2026-05-04 10:17 | 35.17798 | 104.36321 | 38220 ft | 510 kts | 184° |
| 2026-05-04 10:19 | 34.92990 | 104.36713 | 39281 ft | 509 kts | 184° |
| 2026-05-04 10:19 | 34.89402 | 104.36768 | 39304 ft | 509 kts | 184° |
| 2026-05-04 10:19 | 34.82343 | 104.36881 | 39294 ft | 509 kts | 184° |
| 2026-05-04 10:20 | 34.75208 | 104.36993 | 39329 ft | 508 kts | 185° |
| 2026-05-04 10:20 | 34.68156 | 104.37103 | 39334 ft | 510 kts | 184° |
| 2026-05-04 10:21 | 34.60999 | 104.37214 | 39306 ft | 510 kts | 184° |
| 2026-05-04 10:21 | 34.53929 | 104.37327 | 39331 ft | 508 kts | 185° |
| 2026-05-04 10:22 | 34.43295 | 104.37492 | 39329 ft | 509 kts | 185° |
| 2026-05-04 10:23 | 34.36166 | 104.37601 | 39329 ft | 509 kts | 185° |
| 2026-05-04 10:25 | 34.07787 | 104.38041 | 39334 ft | 510 kts | 185° |
| 2026-05-04 10:25 | 34.00655 | 104.38150 | 39326 ft | 510 kts | 185° |
| 2026-05-04 10:26 | 33.93560 | 104.38257 | 39333 ft | 511 kts | 185° |
| 2026-05-04 10:26 | 33.86445 | 104.38365 | 39328 ft | 510 kts | 185° |
| 2026-05-04 10:27 | 33.79338 | 104.38472 | 39348 ft | 511 kts | 185° |
| 2026-05-04 10:27 | 33.72195 | 104.38580 | 39363 ft | 509 kts | 185° |
| 2026-05-04 10:28 | 33.65096 | 104.39212 | 39354 ft | 517 kts | 176° |
| 2026-05-04 10:28 | 33.58070 | 104.41355 | 39353 ft | 526 kts | 164° |
| 2026-05-04 10:29 | 33.51342 | 104.45079 | 39361 ft | 534 kts | 153° |
| 2026-05-04 10:29 | 33.44984 | 104.49616 | 39358 ft | 534 kts | 155° |
| 2026-05-04 10:30 | 33.38191 | 104.53162 | 39350 ft | 526 kts | 166° |
| 2026-05-04 10:30 | 33.31152 | 104.55184 | 39349 ft | 517 kts | 177° |
| 2026-05-04 10:31 | 33.24043 | 104.55879 | 39336 ft | 510 kts | 184° |
| 2026-05-04 10:32 | 32.99171 | 104.57360 | 39320 ft | 510 kts | 183° |
| 2026-05-04 10:33 | 32.92079 | 104.57811 | 39353 ft | 510 kts | 183° |
| 2026-05-04 10:33 | 32.85001 | 104.58260 | 39341 ft | 510 kts | 184° |
| 2026-05-04 10:34 | 32.77857 | 104.58713 | 39351 ft | 510 kts | 184° |
| 2026-05-04 10:34 | 32.70774 | 104.59087 | 39356 ft | 510 kts | 185° |
| 2026-05-04 10:35 | 32.63670 | 104.59386 | 39362 ft | 509 kts | 185° |
| 2026-05-04 10:35 | 32.56591 | 104.59692 | 39330 ft | 509 kts | 185° |
| 2026-05-04 10:36 | 32.49503 | 104.60017 | 39324 ft | 509 kts | 185° |
| 2026-05-04 10:36 | 32.42440 | 104.60345 | 39305 ft | 508 kts | 185° |
| 2026-05-04 10:37 | 32.35318 | 104.60706 | 39284 ft | 510 kts | 184° |
| 2026-05-04 10:37 | 32.28233 | 104.61108 | 39259 ft | 508 kts | 185° |
| 2026-05-04 10:39 | 32.03465 | 104.62466 | 39212 ft | 508 kts | 185° |
| 2026-05-04 10:40 | 31.96384 | 104.62852 | 39215 ft | 507 kts | 185° |
| 2026-05-04 10:40 | 31.89312 | 104.63232 | 39197 ft | 507 kts | 185° |
| 2026-05-04 10:41 | 31.82292 | 104.63608 | 39179 ft | 508 kts | 185° |
| 2026-05-04 10:41 | 31.78721 | 104.63802 | 39282 ft | 508 kts | 185° |
| 2026-05-04 10:41 | 31.75229 | 104.63972 | 39180 ft | 507 kts | 186° |
| 2026-05-04 10:42 | 31.68159 | 104.64256 | 39153 ft | 505 kts | 186° |
| 2026-05-04 10:42 | 31.61120 | 104.64526 | 39148 ft | 505 kts | 186° |
| 2026-05-04 10:43 | 31.54091 | 104.64799 | 39091 ft | 507 kts | 186° |
| 2026-05-04 10:45 | 31.25930 | 104.65906 | 39093 ft | 504 kts | 187° |
| 2026-05-04 10:45 | 31.18896 | 104.66181 | 39092 ft | 504 kts | 187° |
| 2026-05-04 10:46 | 31.11906 | 104.66451 | 39081 ft | 504 kts | 187° |
| 2026-05-04 10:46 | 31.04882 | 104.66758 | 39084 ft | 506 kts | 185° |
| 2026-05-04 10:47 | 30.97809 | 104.67535 | 39077 ft | 511 kts | 179° |
| 2026-05-04 10:47 | 30.94328 | 104.68653 | 39071 ft | 530 kts | 162° |
| 2026-05-04 10:47 | 30.91098 | 104.70874 | 39074 ft | 544 kts | 145° |
| 2026-05-04 10:47 | 30.88471 | 104.74042 | 39072 ft | 553 kts | 127° |
| 2026-05-04 10:49 | 30.85492 | 105.04472 | 39060 ft | 549 kts | 88° |
| 2026-05-04 10:50 | 30.85229 | 105.13328 | 39051 ft | 549 kts | 88° |
| 2026-05-04 10:51 | 30.85101 | 105.44209 | 39052 ft | 543 kts | 77° |
| 2026-05-04 10:52 | 30.85713 | 105.48560 | 39065 ft | 539 kts | 73° |
| 2026-05-04 10:52 | 30.87442 | 105.56974 | 39066 ft | 536 kts | 69° |
| 2026-05-04 10:54 | 30.94614 | 105.90696 | 38996 ft | 539 kts | 73° |
| 2026-05-04 10:56 | 30.92011 | 106.21289 | 39104 ft | 555 kts | 105° |
| 2026-05-04 10:56 | 30.90941 | 106.25568 | 39106 ft | 554 kts | 105° |
| 2026-05-04 10:57 | 30.88593 | 106.34128 | 39074 ft | 554 kts | 112° |
| 2026-05-04 10:57 | 30.84993 | 106.42015 | 39057 ft | 552 kts | 126° |
| 2026-05-04 10:58 | 30.80143 | 106.48878 | 39072 ft | 546 kts | 139° |
| 2026-05-04 10:58 | 30.74588 | 106.54821 | 39082 ft | 545 kts | 142° |
| 2026-05-04 10:59 | 30.68959 | 106.60776 | 39077 ft | 546 kts | 141° |
| 2026-05-04 10:59 | 30.63969 | 106.67477 | 39080 ft | 552 kts | 125° |
| 2026-05-04 11:00 | 30.60614 | 106.75462 | 39081 ft | 556 kts | 108° |
| 2026-05-04 11:01 | 30.57219 | 107.05359 | 39108 ft | 523 kts | 94° |
| 2026-05-04 11:02 | 30.56807 | 107.09573 | 39102 ft | 523 kts | 94° |
| 2026-05-04 11:05 | 30.50370 | 107.72382 | 39097 ft | 524 kts | 95° |
| 2026-05-04 11:06 | 30.49486 | 107.80769 | 39101 ft | 524 kts | 95° |
| 2026-05-04 11:06 | 30.48599 | 107.89133 | 39104 ft | 524 kts | 95° |
| 2026-05-04 11:10 | 30.42078 | 108.49174 | 37197 ft | 559 kts | 96° |
| 2026-05-04 11:12 | 30.38598 | 108.80146 | 35569 ft | 552 kts | 97° |
| 2026-05-04 11:12 | 30.38093 | 108.84588 | 35288 ft | 547 kts | 97° |
| 2026-05-04 11:12 | 30.37598 | 108.88931 | 34950 ft | 541 kts | 97° |
| 2026-05-04 11:12 | 30.37112 | 108.93185 | 34615 ft | 535 kts | 97° |
| 2026-05-04 11:13 | 30.36623 | 108.97446 | 34278 ft | 529 kts | 97° |
| 2026-05-04 11:13 | 30.36137 | 109.01653 | 33949 ft | 523 kts | 97° |
| 2026-05-04 11:13 | 30.35667 | 109.05744 | 33622 ft | 517 kts | 97° |
| 2026-05-04 11:13 | 30.35192 | 109.09854 | 33304 ft | 511 kts | 97° |
| 2026-05-04 11:14 | 30.34724 | 109.13882 | 33184 ft | 500 kts | 97° |
| 2026-05-04 11:14 | 30.34263 | 109.17833 | 33189 ft | 492 kts | 97° |
| 2026-05-04 11:16 | 30.30513 | 109.49210 | 33161 ft | 494 kts | 98° |
| 2026-05-04 11:16 | 30.28514 | 109.56726 | 33165 ft | 489 kts | 120° |
| 2026-05-04 11:17 | 30.26724 | 109.60030 | 33168 ft | 484 kts | 131° |
| 2026-05-04 11:17 | 30.24501 | 109.62887 | 33177 ft | 477 kts | 142° |
| 2026-05-04 11:19 | 30.05144 | 109.76425 | 33252 ft | 464 kts | 157° |
| 2026-05-04 11:19 | 30.02321 | 109.78325 | 33261 ft | 464 kts | 157° |
| 2026-05-04 11:19 | 29.96772 | 109.82066 | 33262 ft | 464 kts | 157° |
| 2026-05-04 11:20 | 29.91178 | 109.85836 | 33256 ft | 464 kts | 157° |
| 2026-05-04 11:20 | 29.85627 | 109.89574 | 33237 ft | 463 kts | 158° |
| 2026-05-04 11:22 | 29.63287 | 110.04558 | 33205 ft | 464 kts | 158° |
| 2026-05-04 11:23 | 29.57704 | 110.08295 | 33178 ft | 464 kts | 158° |
| 2026-05-04 11:25 | 29.38145 | 110.21348 | 33135 ft | 464 kts | 159° |
| 2026-05-04 11:25 | 29.32573 | 110.25062 | 33134 ft | 464 kts | 159° |
| 2026-05-04 11:27 | 29.08123 | 110.43508 | 33119 ft | 488 kts | 140° |
| 2026-05-04 11:28 | 29.03913 | 110.49841 | 33064 ft | 514 kts | 129° |
| 2026-05-04 11:28 | 29.01952 | 110.53339 | 32871 ft | 528 kts | 128° |
| 2026-05-04 11:28 | 29.00007 | 110.56877 | 32699 ft | 531 kts | 128° |
| 2026-05-04 11:29 | 28.98038 | 110.60454 | 32521 ft | 531 kts | 128° |
| 2026-05-04 11:29 | 28.96050 | 110.64041 | 32348 ft | 527 kts | 128° |
| 2026-05-04 11:29 | 28.94107 | 110.67517 | 32176 ft | 527 kts | 129° |
| 2026-05-04 11:29 | 28.92111 | 110.71062 | 32002 ft | 525 kts | 129° |
| 2026-05-04 11:31 | 28.78379 | 110.95303 | 30780 ft | 516 kts | 129° |
| 2026-05-04 11:33 | 28.64877 | 111.19003 | 29217 ft | 503 kts | 129° |
| 2026-05-04 11:33 | 28.62992 | 111.22336 | 29086 ft | 500 kts | 129° |
| 2026-05-04 11:33 | 28.61115 | 111.25662 | 29069 ft | 502 kts | 128° |
| 2026-05-04 11:34 | 28.59229 | 111.29006 | 28745 ft | 501 kts | 129° |
| 2026-05-04 11:34 | 28.57331 | 111.32367 | 28256 ft | 499 kts | 129° |
| 2026-05-04 11:34 | 28.55472 | 111.35648 | 27773 ft | 497 kts | 128° |
| 2026-05-04 11:34 | 28.53608 | 111.38937 | 27276 ft | 495 kts | 128° |
| 2026-05-04 11:35 | 28.51748 | 111.42217 | 26783 ft | 493 kts | 128° |
| 2026-05-04 11:35 | 28.49900 | 111.45476 | 26280 ft | 490 kts | 128° |
| 2026-05-04 11:35 | 28.48042 | 111.48749 | 25790 ft | 488 kts | 127° |
| 2026-05-04 11:35 | 28.46199 | 111.51992 | 25283 ft | 485 kts | 127° |
| 2026-05-04 11:36 | 28.44371 | 111.55201 | 24661 ft | 486 kts | 127° |
| 2026-05-04 11:36 | 28.42540 | 111.58413 | 24005 ft | 487 kts | 127° |
| 2026-05-04 11:36 | 28.40700 | 111.61644 | 23359 ft | 487 kts | 127° |
| 2026-05-04 11:36 | 28.38846 | 111.64893 | 22705 ft | 487 kts | 126° |
| 2026-05-04 11:37 | 28.37008 | 111.68113 | 22068 ft | 485 kts | 126° |
| 2026-05-04 11:37 | 28.35199 | 111.71287 | 21525 ft | 481 kts | 126° |
| 2026-05-04 11:37 | 28.33383 | 111.74470 | 21129 ft | 473 kts | 126° |
| 2026-05-04 11:37 | 28.31618 | 111.77563 | 20785 ft | 465 kts | 126° |
| 2026-05-04 11:38 | 28.29874 | 111.80617 | 20450 ft | 457 kts | 126° |
| 2026-05-04 11:38 | 28.28160 | 111.83614 | 20100 ft | 449 kts | 126° |
| 2026-05-04 11:38 | 28.26469 | 111.86565 | 19762 ft | 442 kts | 126° |
| 2026-05-04 11:38 | 28.24798 | 111.89477 | 19425 ft | 435 kts | 126° |
| 2026-05-04 11:39 | 28.23150 | 111.92349 | 19079 ft | 428 kts | 126° |
| 2026-05-04 11:39 | 28.21538 | 111.95158 | 18739 ft | 422 kts | 125° |
| 2026-05-04 11:40 | 28.12337 | 112.11131 | 16696 ft | 389 kts | 124° |
| 2026-05-04 11:41 | 28.10874 | 112.13708 | 16351 ft | 384 kts | 124° |
| 2026-05-04 11:41 | 28.09446 | 112.16222 | 16003 ft | 380 kts | 124° |
| 2026-05-04 11:41 | 28.08025 | 112.18719 | 15664 ft | 376 kts | 123° |
| 2026-05-04 11:41 | 28.06599 | 112.21221 | 15319 ft | 372 kts | 124° |
| 2026-05-04 11:42 | 28.05180 | 112.23664 | 14978 ft | 368 kts | 124° |
| 2026-05-04 11:42 | 28.03786 | 112.26041 | 14644 ft | 365 kts | 124° |
| 2026-05-04 11:42 | 28.02372 | 112.28452 | 14305 ft | 361 kts | 124° |
| 2026-05-04 11:42 | 28.01000 | 112.30794 | 13961 ft | 358 kts | 123° |
| 2026-05-04 11:43 | 27.99660 | 112.33175 | 13618 ft | 356 kts | 117° |
| 2026-05-04 11:43 | 27.98744 | 112.35766 | 13280 ft | 355 kts | 104° |
| 2026-05-04 11:43 | 27.98351 | 112.38492 | 12946 ft | 351 kts | 94° |
| 2026-05-04 11:43 | 27.98184 | 112.41270 | 12604 ft | 349 kts | 92° |
| 2026-05-04 11:44 | 27.98052 | 112.43986 | 12265 ft | 346 kts | 92° |
| 2026-05-04 11:44 | 27.97911 | 112.46709 | 11924 ft | 343 kts | 92° |
| 2026-05-04 11:44 | 27.97761 | 112.49370 | 11782 ft | 334 kts | 92° |
| 2026-05-04 11:44 | 27.97607 | 112.51950 | 11774 ft | 321 kts | 92° |
| 2026-05-04 11:45 | 27.97454 | 112.54424 | 11769 ft | 308 kts | 92° |
| 2026-05-04 11:45 | 27.97305 | 112.56782 | 11773 ft | 299 kts | 92° |
| 2026-05-04 11:45 | 27.97159 | 112.59158 | 11764 ft | 300 kts | 92° |
| 2026-05-04 11:45 | 27.97012 | 112.61512 | 11552 ft | 300 kts | 92° |
| 2026-05-04 11:46 | 27.96864 | 112.63872 | 11355 ft | 298 kts | 92° |
| 2026-05-04 11:46 | 27.96717 | 112.66196 | 11152 ft | 296 kts | 93° |
| 2026-05-04 11:46 | 27.96570 | 112.68533 | 10944 ft | 295 kts | 93° |
| 2026-05-04 11:46 | 27.96424 | 112.70836 | 10736 ft | 293 kts | 93° |
| 2026-05-04 11:47 | 27.96277 | 112.73146 | 10520 ft | 292 kts | 93° |
| 2026-05-04 11:47 | 27.96132 | 112.75425 | 10320 ft | 290 kts | 92° |
| 2026-05-04 11:47 | 27.95988 | 112.77696 | 10118 ft | 288 kts | 93° |
| 2026-05-04 11:47 | 27.95840 | 112.79965 | 9909 ft | 287 kts | 93° |
| 2026-05-04 11:48 | 27.95698 | 112.82193 | 9813 ft | 285 kts | 93° |
| 2026-05-04 11:48 | 27.95551 | 112.84461 | 9809 ft | 286 kts | 93° |
| 2026-05-04 11:48 | 27.95408 | 112.86687 | 9807 ft | 286 kts | 93° |
| 2026-05-04 11:48 | 27.95397 | 112.88930 | 9789 ft | 284 kts | 77° |
| 2026-05-04 11:49 | 27.96194 | 112.90970 | 9764 ft | 283 kts | 51° |
| 2026-05-04 11:49 | 27.97666 | 112.92373 | 9612 ft | 278 kts | 28° |
| 2026-05-04 11:49 | 27.99423 | 112.93381 | 9501 ft | 279 kts | 26° |
| 2026-05-04 11:49 | 28.01151 | 112.94356 | 9354 ft | 278 kts | 26° |
| 2026-05-04 11:50 | 28.02892 | 112.95348 | 9217 ft | 277 kts | 27° |
| 2026-05-04 11:50 | 28.04604 | 112.96337 | 9074 ft | 276 kts | 27° |
| 2026-05-04 11:50 | 28.06323 | 112.97338 | 8870 ft | 276 kts | 27° |
| 2026-05-04 11:50 | 28.08046 | 112.98345 | 8647 ft | 276 kts | 27° |
| 2026-05-04 11:51 | 28.09763 | 112.99352 | 8420 ft | 275 kts | 27° |
| 2026-05-04 11:51 | 28.11460 | 113.00346 | 8196 ft | 274 kts | 27° |
| 2026-05-04 11:51 | 28.13147 | 113.01369 | 7970 ft | 273 kts | 32° |
| 2026-05-04 11:51 | 28.14635 | 113.02683 | 7874 ft | 272 kts | 44° |
| 2026-05-04 11:52 | 28.15973 | 113.04212 | 7869 ft | 272 kts | 46° |
| 2026-05-04 11:52 | 28.17283 | 113.05771 | 7854 ft | 273 kts | 46° |
| 2026-05-04 11:52 | 28.18586 | 113.07322 | 7860 ft | 265 kts | 46° |
| 2026-05-04 11:52 | 28.19859 | 113.08829 | 7554 ft | 266 kts | 46° |
| 2026-05-04 11:53 | 28.21177 | 113.10307 | 7038 ft | 267 kts | 37° |
| 2026-05-04 11:53 | 28.22881 | 113.11108 | 6526 ft | 267 kts | 6° |
| 2026-05-04 11:53 | 28.24753 | 113.11049 | 6058 ft | 267 kts | 356° |
| 2026-05-04 11:53 | 28.26590 | 113.10900 | 5584 ft | 266 kts | 357° |
| 2026-05-04 11:55 | 28.39417 | 113.10596 | 2386 ft | 256 kts | 34° |
| 2026-05-04 11:55 | 28.40543 | 113.12106 | 2267 ft | 246 kts | 72° |
| 2026-05-04 11:56 | 28.40664 | 113.13982 | 2274 ft | 233 kts | 96° |
| 2026-05-04 11:56 | 28.40490 | 113.15765 | 2273 ft | 224 kts | 95° |
| 2026-05-04 11:56 | 28.40391 | 113.17494 | 2266 ft | 215 kts | 92° |
| 2026-05-04 11:56 | 28.40289 | 113.19147 | 2248 ft | 204 kts | 108° |
| 2026-05-04 11:57 | 28.39521 | 113.20424 | 2234 ft | 195 kts | 144° |
| 2026-05-04 11:57 | 28.38311 | 113.21032 | 2244 ft | 184 kts | 166° |
| 2026-05-04 11:57 | 28.37049 | 113.21253 | 2260 ft | 182 kts | 173° |
| 2026-05-04 11:57 | 28.35768 | 113.21349 | 2269 ft | 183 kts | 176° |
| 2026-05-04 11:58 | 28.34495 | 113.21413 | 2269 ft | 182 kts | 176° |
| 2026-05-04 11:58 | 28.33271 | 113.21474 | 2275 ft | 170 kts | 175° |
| 2026-05-04 11:58 | 28.32139 | 113.21539 | 2255 ft | 156 kts | 175° |
| 2026-05-04 11:58 | 28.31049 | 113.21606 | 2127 ft | 151 kts | 175° |
| 2026-05-04 11:59 | 28.30017 | 113.21672 | 1926 ft | 145 kts | 174° |
| 2026-05-04 11:59 | 28.29019 | 113.21736 | 1742 ft | 144 kts | 175° |
| 2026-05-04 11:59 | 28.28011 | 113.21800 | 1564 ft | 144 kts | 175° |
| 2026-05-04 11:59 | 28.26999 | 113.21864 | 1382 ft | 144 kts | 175° |
| 2026-05-04 12:00 | 28.25996 | 113.21926 | 1202 ft | 144 kts | 175° |
| 2026-05-04 12:00 | 28.24990 | 113.21989 | 1014 ft | 143 kts | 176° |
| 2026-05-04 12:00 | 28.23986 | 113.22051 | 831 ft | 143 kts | 175° |
| 2026-05-04 12:00 | 28.22991 | 113.22112 | 648 ft | 143 kts | 176° |
| 2026-05-04 12:01 | 28.21989 | 113.22176 | 464 ft | 143 kts | 176° |
| 2026-05-04 12:01 | 28.20998 | 113.22235 | 289 ft | 142 kts | 176° |
| 2026-05-04 12:02 | 28.18765 | 113.22284 | 234 ft | 15 kts | 204° |
| 2026-05-04 12:03 | 28.18673 | 113.22238 | 234 ft | 10 kts | 204° |
| 2026-05-04 12:03 | 28.18611 | 113.22208 | 234 ft | 8 kts | 202° |
| 2026-05-04 12:03 | 28.18547 | 113.22194 | 234 ft | 10 kts | 178° |
| 2026-05-04 12:03 | 28.18471 | 113.22200 | 234 ft | 11 kts | 176° |
| 2026-05-04 12:04 | 28.18385 | 113.22205 | 234 ft | 12 kts | 176° |
| 2026-05-04 12:04 | 28.18291 | 113.22211 | 234 ft | 14 kts | 176° |
| 2026-05-04 12:04 | 28.18188 | 113.22218 | 234 ft | 15 kts | 176° |
| 2026-05-04 12:04 | 28.18080 | 113.22224 | 234 ft | 15 kts | 176° |
| 2026-05-04 12:05 | 28.17968 | 113.22231 | 234 ft | 16 kts | 177° |
| 2026-05-04 12:05 | 28.17851 | 113.22238 | 234 ft | 13 kts | 176° |
| 2026-05-04 12:05 | 28.17792 | 113.22241 | 234 ft | 5 kts | 188° |
| 2026-05-04 12:05 | 28.17769 | 113.22209 | 234 ft | 6 kts | 253° |
| 2026-05-04 12:06 | 28.17760 | 113.22148 | 234 ft | 8 kts | 267° |
| 2026-05-04 12:06 | 28.17756 | 113.22079 | 234 ft | 8 kts | 263° |
| 2026-05-04 12:06 | 28.17747 | 113.22004 | 234 ft | 10 kts | 261° |
| 2026-05-04 12:06 | 28.17741 | 113.21922 | 234 ft | 6 kts | 274° |
| 2026-05-04 12:07 | 28.17765 | 113.21873 | 234 ft | 7 kts | 323° |
| 2026-05-04 12:07 | 28.17826 | 113.21858 | 234 ft | 10 kts | 354° |
| 2026-05-04 12:07 | 28.17902 | 113.21852 | 234 ft | 11 kts | 356° |
| 2026-05-04 12:07 | 28.17987 | 113.21846 | 234 ft | 13 kts | 356° |
| 2026-05-04 12:08 | 28.18093 | 113.21840 | 234 ft | 16 kts | 357° |
| 2026-05-04 12:08 | 28.18203 | 113.21833 | 234 ft | 15 kts | 356° |
| 2026-05-04 12:08 | 28.18314 | 113.21826 | 234 ft | 12 kts | 356° |
| 2026-05-04 12:08 | 28.18361 | 113.21823 | 234 ft | 0 kts | 356° |
| 2026-05-04 12:09 | 28.18363 | 113.21823 | 234 ft | 1 kts | 356° |
| 2026-05-04 12:09 | 28.18380 | 113.21822 | 234 ft | 3 kts | 356° |
| 2026-05-04 12:10 | 28.18414 | 113.21820 | 234 ft | 6 kts | 356° |
| 2026-05-04 12:10 | 28.18465 | 113.21817 | 234 ft | 8 kts | 356° |
| 2026-05-04 12:10 | 28.18511 | 113.21814 | 234 ft | 0 kts | 356° |
| 2026-05-04 12:11 | 28.18515 | 113.21814 | 234 ft | 1 kts | 356° |
| 2026-05-04 12:11 | 28.18536 | 113.21812 | 234 ft | 4 kts | 356° |
| 2026-05-04 12:12 | 28.18572 | 113.21810 | 234 ft | 4 kts | 356° |
| 2026-05-04 12:12 | 28.18615 | 113.21808 | 234 ft | 7 kts | 356° |
| 2026-05-04 12:12 | 28.18672 | 113.21804 | 234 ft | 9 kts | 356° |
| 2026-05-04 12:12 | 28.18743 | 113.21800 | 234 ft | 10 kts | 357° |
| 2026-05-04 12:13 | 28.18823 | 113.21795 | 234 ft | 12 kts | 356° |
| 2026-05-04 12:14 | 28.19056 | 113.21780 | 234 ft | 0 kts | 356° |